createdAt,value
2023-02-25T00:02:24.070Z,22.97
2023-02-25T00:05:00.830Z,26.33
2023-02-25T00:07:49.187Z,24.70
2023-02-25T00:10:19.439Z,20.97
2023-02-25T00:12:48.341Z,19.70
2023-02-25T00:15:25.600Z,25.63
2023-02-25T00:17:54.777Z,26.40
2023-02-25T00:20:23.435Z,24.07
2023-02-25T00:22:51.782Z,20.70
2023-02-25T00:25:20.213Z,23.77
2023-02-25T00:27:48.851Z,20.37
2023-02-25T00:30:21.774Z,22.50
2023-02-25T00:32:50.556Z,22.60
2023-02-25T00:35:18.690Z,23.97
2023-02-25T00:37:46.996Z,23.80
2023-02-25T00:40:15.276Z,24.07
2023-02-25T00:42:52.050Z,25.07
2023-02-25T00:45:20.978Z,25.67
2023-02-25T00:47:49.689Z,21.87
2023-02-25T00:50:17.768Z,22.50
2023-02-25T00:52:47.110Z,22.83
2023-02-25T00:55:16.771Z,20.97
2023-02-25T00:57:45.753Z,23.53
2023-02-25T01:00:17.480Z,22.83
2023-02-25T01:02:46.418Z,27.83
2023-02-25T01:05:15.813Z,23.37
2023-02-25T01:07:44.863Z,24.07
2023-02-25T01:10:13.257Z,25.03
2023-02-25T01:12:41.288Z,24.63
2023-02-25T01:15:10.037Z,21.83
2023-02-25T01:17:38.467Z,21.90
2023-02-25T01:20:13.412Z,24.13
2023-02-25T01:22:42.123Z,20.83
2023-02-25T01:25:16.121Z,22.73
2023-02-25T01:27:44.961Z,24.17
2023-02-25T01:30:13.318Z,25.43
2023-02-25T01:32:45.982Z,26.40
2023-02-25T01:35:15.623Z,20.47
2023-02-25T01:37:47.176Z,23.00
2023-02-25T01:40:17.477Z,18.57
2023-02-25T01:42:47.108Z,22.07
2023-02-25T01:45:25.165Z,20.00
2023-02-25T01:48:00.431Z,21.30
2023-02-25T01:50:34.259Z,15.30
2023-02-25T01:53:03.071Z,19.03
2023-02-25T01:55:31.868Z,19.93
2023-02-25T01:58:00.712Z,20.07
2023-02-25T02:00:32.643Z,19.60
2023-02-25T02:03:05.017Z,21.20
2023-02-25T02:06:00.122Z,15.90
2023-02-25T02:08:28.763Z,15.47
2023-02-25T02:10:58.598Z,19.83
2023-02-25T02:13:29.181Z,15.83
2023-02-25T02:16:18.424Z,16.07
2023-02-25T02:18:50.722Z,15.10
2023-02-25T02:21:18.934Z,16.10
2023-02-25T02:24:07.317Z,16.90
2023-02-25T02:26:52.297Z,13.70
2023-02-25T02:29:45.649Z,16.90
2023-02-25T02:32:39.893Z,18.00
2023-02-25T02:35:16.289Z,18.80
2023-02-25T02:38:12.706Z,14.47
2023-02-25T02:40:49.985Z,14.50
2023-02-25T02:43:23.915Z,20.37
2023-02-25T02:46:12.662Z,16.37
2023-02-25T02:49:07.350Z,18.17
2023-02-25T02:51:57.858Z,18.97
2023-02-25T02:54:30.434Z,23.60
2023-02-25T02:56:59.684Z,21.30
2023-02-25T02:59:34.617Z,26.53
2023-02-25T03:02:24.380Z,26.73
2023-02-25T03:04:55.079Z,29.77
2023-02-25T03:07:23.660Z,35.70
2023-02-25T03:09:57.930Z,31.77
2023-02-25T03:12:30.352Z,35.70
2023-02-25T03:14:58.865Z,32.27
2023-02-25T03:17:33.845Z,29.87
2023-02-25T03:20:20.200Z,31.73
2023-02-25T03:22:50.151Z,27.03
2023-02-25T03:25:29.089Z,31.83
2023-02-25T03:28:03.436Z,30.60
2023-02-25T03:30:43.932Z,25.63
2023-02-25T03:33:31.389Z,27.60
2023-02-25T03:36:01.404Z,32.57
2023-02-25T03:38:32.069Z,28.33
2023-02-25T03:41:02.172Z,27.57
2023-02-25T03:43:38.326Z,28.10
2023-02-25T03:46:06.678Z,32.93
2023-02-25T03:48:36.080Z,27.30
2023-02-25T03:51:05.756Z,31.70
2023-02-25T03:53:48.625Z,26.73
2023-02-25T03:56:17.310Z,25.33
2023-02-25T03:58:46.023Z,27.60
2023-02-25T04:01:22.006Z,22.93
2023-02-25T04:03:50.868Z,23.53
2023-02-25T04:06:23.720Z,22.87
2023-02-25T04:08:52.468Z,21.80
2023-02-25T04:11:20.923Z,25.17
2023-02-25T04:13:49.057Z,28.50
2023-02-25T04:16:17.442Z,25.80
2023-02-25T04:18:49.800Z,27.43
2023-02-25T04:21:33.180Z,31.43
2023-02-25T04:24:02.123Z,28.17
2023-02-25T04:26:30.321Z,32.53
2023-02-25T04:29:04.820Z,33.80
2023-02-25T04:31:35.407Z,32.23
2023-02-25T04:34:04.872Z,30.33
2023-02-25T04:36:35.515Z,32.33
2023-02-25T04:39:06.319Z,30.47
2023-02-25T04:41:36.051Z,29.47
2023-02-25T04:44:05.721Z,30.63
2023-02-25T04:46:42.147Z,27.90
2023-02-25T04:49:10.726Z,27.43
2023-02-25T04:51:40.246Z,28.40
2023-02-25T04:54:09.170Z,31.83
2023-02-25T04:56:38.505Z,31.30
2023-02-25T04:59:07.026Z,30.27
2023-02-25T05:01:35.085Z,24.53
2023-02-25T05:04:03.671Z,26.67
2023-02-25T05:06:34.083Z,30.47
2023-02-25T05:09:08.738Z,26.80
2023-02-25T05:11:39.991Z,29.43
2023-02-25T05:14:08.812Z,29.47
2023-02-25T05:16:40.168Z,29.77
2023-02-25T05:19:08.456Z,33.53
2023-02-25T05:21:38.501Z,31.70
2023-02-25T05:24:07.199Z,30.13
2023-02-25T05:26:37.749Z,33.03
2023-02-25T05:29:06.957Z,30.63
2023-02-25T05:31:35.717Z,29.07
2023-02-25T05:34:05.679Z,24.60
2023-02-25T05:36:34.163Z,26.80
2023-02-25T05:39:07.218Z,23.30
2023-02-25T05:41:35.597Z,19.30
2023-02-25T05:44:03.729Z,25.60
2023-02-25T05:46:32.127Z,21.77
2023-02-25T05:49:00.158Z,22.73
2023-02-25T05:51:29.931Z,20.03
2023-02-25T05:53:58.126Z,21.63
2023-02-25T05:56:32.456Z,16.37
2023-02-25T05:59:01.103Z,17.83
2023-02-25T06:01:32.589Z,22.67
2023-02-25T06:04:02.690Z,19.30
2023-02-25T06:06:33.241Z,18.73
2023-02-25T06:09:01.488Z,18.10
2023-02-25T06:11:31.090Z,20.90
2023-02-25T06:14:01.881Z,23.97
2023-02-25T06:16:32.841Z,18.13
2023-02-25T06:19:08.276Z,18.93
2023-02-25T06:21:39.976Z,17.87
2023-02-25T06:24:08.623Z,16.33
2023-02-25T06:26:42.265Z,19.17
2023-02-25T06:29:10.812Z,17.63
2023-02-25T06:31:40.741Z,18.03
2023-02-25T06:34:08.754Z,18.80
2023-02-25T06:36:36.776Z,21.53
2023-02-25T06:39:04.973Z,24.97
2023-02-25T06:41:33.514Z,20.57
2023-02-25T06:44:01.951Z,20.17
2023-02-25T06:46:30.803Z,20.13
2023-02-25T06:49:01.379Z,19.07
2023-02-25T06:51:29.890Z,18.90
2023-02-25T06:53:58.194Z,18.27
2023-02-25T06:56:26.925Z,15.40
2023-02-25T06:58:57.004Z,20.03
2023-02-25T07:01:26.308Z,19.27
2023-02-25T07:03:54.674Z,21.33
2023-02-25T07:06:23.133Z,15.17
2023-02-25T07:08:51.435Z,16.47
2023-02-25T07:11:30.839Z,13.83
2023-02-25T07:14:04.391Z,16.37
2023-02-25T07:16:34.674Z,16.77
2023-02-25T07:19:05.759Z,14.00
2023-02-25T07:21:35.161Z,16.93
2023-02-25T07:24:06.398Z,17.37
2023-02-25T07:26:35.321Z,25.37
2023-02-25T07:29:07.521Z,22.37
2023-02-25T07:31:37.686Z,20.60
2023-02-25T07:34:10.423Z,18.30
2023-02-25T07:36:39.022Z,20.80
2023-02-25T07:39:09.464Z,18.10
2023-02-25T07:41:37.732Z,16.80
2023-02-25T07:44:07.300Z,14.23
2023-02-25T07:46:36.714Z,18.00
2023-02-25T07:49:08.874Z,16.80
2023-02-25T07:51:37.690Z,16.33
2023-02-25T07:54:05.794Z,19.83
2023-02-25T07:56:36.164Z,18.23
2023-02-25T07:59:07.737Z,18.67
2023-02-25T08:01:36.082Z,20.07
2023-02-25T08:04:10.757Z,21.03
2023-02-25T08:06:46.318Z,22.83
2023-02-25T08:09:14.585Z,18.37
2023-02-25T08:11:45.384Z,21.27
2023-02-25T08:14:14.254Z,19.73
2023-02-25T08:16:43.019Z,14.47
2023-02-25T08:19:15.388Z,14.43
2023-02-25T08:21:43.695Z,18.90
2023-02-25T08:24:15.445Z,17.37
2023-02-25T08:26:43.351Z,22.33
2023-02-25T08:29:11.497Z,20.77
2023-02-25T08:31:40.004Z,22.33
2023-02-25T08:34:08.884Z,21.27
2023-02-25T08:36:38.120Z,23.53
2023-02-25T08:39:07.108Z,25.63
2023-02-25T08:41:35.977Z,24.63
2023-02-25T08:44:04.489Z,21.50
2023-02-25T08:46:34.447Z,22.63
2023-02-25T08:49:03.263Z,16.27
2023-02-25T08:51:34.947Z,18.77
2023-02-25T08:54:09.793Z,19.03
2023-02-25T08:56:38.631Z,14.77
2023-02-25T08:59:17.344Z,21.40
2023-02-25T09:01:45.746Z,17.93
2023-02-25T09:04:20.165Z,14.47
2023-02-25T09:06:48.402Z,11.80
2023-02-25T09:09:21.470Z,13.93
2023-02-25T09:11:51.204Z,18.60
2023-02-25T09:14:21.649Z,11.07
2023-02-25T09:16:50.137Z,14.50
2023-02-25T09:19:22.890Z,12.20
2023-02-25T09:21:51.379Z,14.80
2023-02-25T09:24:22.651Z,9.03
2023-02-25T09:27:00.671Z,15.40
2023-02-25T09:29:28.957Z,13.53
2023-02-25T09:31:57.315Z,13.77
2023-02-25T09:34:25.687Z,14.67
2023-02-25T09:36:54.393Z,15.17
2023-02-25T09:39:22.673Z,14.97
2023-02-25T09:42:06.503Z,14.63
2023-02-25T09:44:39.949Z,14.10
2023-02-25T09:47:39.127Z,16.87
2023-02-25T09:50:22.091Z,12.87
2023-02-25T09:52:57.155Z,16.90
2023-02-25T09:55:43.257Z,14.80
2023-02-25T09:58:37.403Z,13.63
2023-02-25T10:01:12.710Z,12.10
2023-02-25T10:03:57.257Z,13.83
2023-02-25T10:06:43.914Z,15.43
2023-02-25T10:09:45.721Z,13.63
2023-02-25T10:12:29.954Z,12.77
2023-02-25T10:15:30.363Z,12.53
2023-02-25T10:18:30.674Z,17.07
2023-02-25T10:21:39.928Z,19.33
2023-02-25T10:24:27.338Z,14.53
2023-02-25T10:27:15.756Z,12.27
2023-02-25T10:29:53.981Z,14.73
2023-02-25T10:32:25.936Z,11.40
2023-02-25T10:35:00.353Z,15.53
2023-02-25T10:37:35.586Z,16.57
2023-02-25T10:40:11.357Z,25.93
2023-02-25T10:42:39.735Z,19.23
2023-02-25T10:45:13.794Z,14.30
2023-02-25T10:47:46.868Z,13.23
2023-02-25T10:50:17.651Z,13.23
2023-02-25T10:53:18.599Z,15.03
2023-02-25T10:55:52.684Z,13.53
2023-02-25T10:58:35.657Z,10.73
2023-02-25T11:01:11.642Z,12.47
2023-02-25T11:04:06.628Z,16.37
2023-02-25T11:06:41.026Z,11.70
2023-02-25T11:09:21.103Z,12.43
2023-02-25T11:12:02.161Z,16.30
2023-02-25T11:14:33.095Z,15.10
2023-02-25T11:17:09.867Z,15.33
2023-02-25T11:19:50.201Z,14.63
2023-02-25T11:22:21.735Z,16.40
2023-02-25T11:25:01.249Z,13.07
2023-02-25T11:27:40.534Z,14.27
2023-02-25T11:30:15.148Z,18.00
2023-02-25T11:32:45.247Z,15.37
2023-02-25T11:35:19.513Z,14.23
2023-02-25T11:37:50.806Z,16.33
2023-02-25T11:40:26.347Z,15.53
2023-02-25T11:43:06.624Z,11.97
2023-02-25T11:45:49.377Z,14.00
2023-02-25T11:48:20.659Z,12.13
2023-02-25T11:51:00.950Z,11.80
2023-02-25T11:54:06.571Z,13.07
2023-02-25T11:56:44.159Z,15.97
2023-02-25T11:59:23.308Z,11.13
2023-02-25T12:02:18.904Z,15.97
2023-02-25T12:05:17.130Z,18.27
2023-02-25T12:08:12.411Z,17.83
2023-02-25T12:11:23.148Z,19.63
2023-02-25T12:14:14.604Z,13.43
2023-02-25T12:16:59.124Z,14.83
2023-02-25T12:19:54.788Z,12.67
2023-02-25T12:22:53.963Z,20.37
2023-02-25T12:26:09.413Z,12.07
2023-02-25T12:28:59.686Z,15.73
2023-02-25T12:31:42.423Z,15.90
2023-02-25T12:34:17.308Z,15.43
2023-02-25T12:37:00.779Z,14.73
2023-02-25T12:39:49.321Z,16.73
2023-02-25T12:42:35.093Z,14.80
2023-02-25T12:45:44.871Z,14.10
2023-02-25T12:48:40.677Z,14.80
2023-02-25T12:51:46.117Z,17.83
2023-02-25T12:54:26.291Z,15.27
2023-02-25T12:57:11.566Z,14.27
2023-02-25T13:00:32.119Z,12.83
2023-02-25T13:03:15.992Z,14.43
2023-02-25T13:06:21.332Z,16.77
2023-02-25T13:09:23.414Z,15.60
2023-02-25T13:12:24.294Z,15.07
2023-02-25T13:15:03.928Z,14.77
2023-02-25T13:17:34.781Z,17.10
2023-02-25T13:20:33.835Z,14.53
2023-02-25T13:23:26.791Z,12.20
2023-02-25T13:26:01.126Z,15.10
2023-02-25T13:28:50.304Z,13.63
2023-02-25T13:31:50.109Z,18.00
2023-02-25T13:34:25.827Z,15.53
2023-02-25T13:37:30.159Z,16.77
2023-02-25T13:40:13.117Z,18.63
2023-02-25T13:43:13.782Z,18.67
2023-02-25T13:45:54.374Z,22.53
2023-02-25T13:48:41.604Z,23.07
2023-02-25T13:51:25.622Z,22.73
2023-02-25T13:54:22.361Z,22.83
2023-02-25T13:56:57.588Z,21.37
2023-02-25T14:00:03.371Z,26.57
2023-02-25T14:02:54.011Z,37.90
2023-02-25T14:05:26.481Z,27.33
2023-02-25T14:08:28.405Z,26.47
2023-02-25T14:11:29.470Z,22.70
2023-02-25T14:14:18.414Z,19.80
2023-02-25T14:17:01.039Z,19.40
2023-02-25T14:19:51.322Z,18.40
2023-02-25T14:22:36.305Z,24.07
2023-02-25T14:25:41.997Z,19.93
2023-02-25T14:28:21.120Z,21.90
2023-02-25T14:31:20.560Z,21.93
2023-02-25T14:34:21.593Z,21.27
2023-02-25T14:36:59.048Z,24.67
2023-02-25T14:39:46.238Z,23.00
2023-02-25T14:42:49.742Z,26.43
2023-02-25T14:45:32.905Z,19.47
2023-02-25T14:48:10.257Z,23.33
2023-02-25T14:50:55.345Z,25.33
2023-02-25T14:53:46.634Z,25.27
2023-02-25T14:56:16.381Z,28.67
2023-02-25T14:59:18.298Z,23.77
2023-02-25T15:01:52.161Z,22.47
2023-02-25T15:04:50.305Z,25.93
2023-02-25T15:07:27.622Z,24.60
2023-02-25T15:10:09.040Z,26.57
2023-02-25T15:13:02.999Z,23.10
2023-02-25T15:15:45.550Z,28.47
2023-02-25T15:18:36.869Z,26.70
2023-02-25T15:21:32.997Z,29.37
2023-02-25T15:24:04.985Z,28.50
2023-02-25T15:26:43.966Z,30.47
2023-02-25T15:29:41.690Z,27.97
2023-02-25T15:32:29.317Z,26.13
2023-02-25T15:35:03.235Z,32.70
2023-02-25T15:37:37.892Z,28.53
2023-02-25T15:40:15.345Z,29.67
2023-02-25T15:42:51.093Z,29.77
2023-02-25T15:45:30.180Z,33.83
2023-02-25T15:48:12.578Z,24.53
2023-02-25T15:50:46.803Z,26.40
2023-02-25T15:53:26.406Z,31.13
2023-02-25T15:56:14.978Z,21.30
2023-02-25T15:58:56.896Z,25.13
2023-02-25T16:01:43.149Z,25.23
2023-02-25T16:04:42.178Z,25.93
2023-02-25T16:07:14.772Z,26.23
2023-02-25T16:09:49.058Z,35.47
2023-02-25T16:12:17.711Z,29.17
2023-02-25T16:14:47.299Z,31.83
2023-02-25T16:17:30.747Z,29.87
2023-02-25T16:20:14.146Z,41.90
2023-02-25T16:22:45.484Z,31.97
2023-02-25T16:25:16.862Z,30.57
2023-02-25T16:27:57.865Z,34.47
2023-02-25T16:30:40.520Z,32.90
2023-02-25T16:33:36.306Z,34.27
2023-02-25T16:36:16.626Z,38.10
2023-02-25T16:39:07.249Z,34.63
2023-02-25T16:41:38.644Z,39.23
2023-02-25T16:44:08.343Z,36.33
2023-02-25T16:46:38.139Z,38.33
2023-02-25T16:49:12.317Z,41.33
2023-02-25T16:51:42.139Z,39.50
2023-02-25T16:54:20.320Z,34.50
2023-02-25T16:56:51.949Z,38.60
2023-02-25T16:59:25.446Z,36.60
2023-02-25T17:01:59.500Z,39.73
2023-02-25T17:04:33.557Z,38.80
2023-02-25T17:07:22.591Z,41.40
2023-02-25T17:09:56.218Z,40.67
2023-02-25T17:12:41.186Z,37.93
2023-02-25T17:15:22.124Z,43.33
2023-02-25T17:17:56.840Z,42.40
2023-02-25T17:20:28.039Z,34.27
2023-02-25T17:22:57.689Z,38.97
2023-02-25T17:25:31.071Z,33.90
2023-02-25T17:28:04.054Z,35.53
2023-02-25T17:30:36.225Z,30.60
2023-02-25T17:33:05.744Z,32.07
2023-02-25T17:35:36.169Z,29.90
2023-02-25T17:38:04.867Z,28.10
2023-02-25T17:40:33.659Z,27.87
2023-02-25T17:43:21.734Z,24.93
2023-02-25T17:45:59.868Z,29.03
2023-02-25T17:48:32.586Z,28.23
2023-02-25T17:51:08.752Z,27.27
2023-02-25T17:53:51.621Z,32.27
2023-02-25T17:56:26.811Z,35.33
2023-02-25T17:59:02.001Z,30.17
2023-02-25T18:01:44.542Z,28.43
2023-02-25T18:04:32.172Z,30.30
2023-02-25T18:07:23.031Z,29.37
2023-02-25T18:09:51.589Z,29.33
2023-02-25T18:12:34.548Z,30.87
2023-02-25T18:15:14.597Z,39.37
2023-02-25T18:17:44.552Z,30.50
2023-02-25T18:20:45.382Z,27.27
2023-02-25T18:23:40.479Z,32.57
2023-02-25T18:26:17.272Z,31.63
2023-02-25T18:28:46.495Z,36.90
2023-02-25T18:31:19.134Z,31.10
2023-02-25T18:33:48.741Z,31.53
2023-02-25T18:36:26.093Z,30.63
2023-02-25T18:39:05.001Z,33.43
2023-02-25T18:41:33.820Z,34.57
2023-02-25T18:44:03.433Z,30.73
2023-02-25T18:46:31.951Z,28.27
2023-02-25T18:49:00.457Z,30.40
2023-02-25T18:51:28.485Z,32.10
2023-02-25T18:53:56.594Z,35.77
2023-02-25T18:56:29.856Z,35.33
2023-02-25T18:58:59.337Z,34.37
2023-02-25T19:01:31.952Z,32.17
2023-02-25T19:04:00.532Z,37.23
2023-02-25T19:06:29.676Z,42.07
2023-02-25T19:08:58.091Z,36.03
2023-02-25T19:11:31.507Z,32.43
2023-02-25T19:14:00.384Z,33.47
2023-02-25T19:16:28.793Z,33.87
2023-02-25T19:18:58.509Z,30.23
2023-02-25T19:21:30.459Z,34.03
2023-02-25T19:23:58.937Z,33.80
2023-02-25T19:26:27.267Z,35.83
2023-02-25T19:28:55.752Z,38.77
2023-02-25T19:31:25.278Z,41.03
2023-02-25T19:33:54.732Z,38.27
2023-02-25T19:36:23.222Z,39.10
2023-02-25T19:38:51.649Z,41.23
2023-02-25T19:41:19.981Z,43.70
2023-02-25T19:43:52.147Z,42.93
2023-02-25T19:46:21.447Z,42.40
2023-02-25T19:48:49.283Z,45.23
2023-02-25T19:51:20.019Z,43.30
2023-02-25T19:53:52.000Z,45.67
2023-02-25T19:56:20.101Z,48.80
2023-02-25T19:58:48.254Z,45.60
2023-02-25T20:01:16.549Z,48.43
2023-02-25T20:03:44.838Z,50.43
2023-02-25T20:06:15.160Z,53.30
2023-02-25T20:08:46.256Z,51.90
2023-02-25T20:11:14.623Z,51.10
2023-02-25T20:13:44.361Z,56.27
2023-02-25T20:16:13.354Z,54.63
2023-02-25T20:18:42.119Z,56.73
2023-02-25T20:21:10.070Z,51.57
2023-02-25T20:23:40.842Z,52.87
2023-02-25T20:26:15.496Z,52.17
2023-02-25T20:28:43.595Z,55.23
2023-02-25T20:31:16.106Z,57.70
2023-02-25T20:33:44.867Z,53.73
2023-02-25T20:36:29.778Z,53.97
2023-02-25T20:38:58.768Z,56.47
2023-02-25T20:41:26.939Z,53.97
2023-02-25T20:43:55.260Z,53.37
2023-02-25T20:46:28.104Z,56.60
2023-02-25T20:48:56.404Z,59.03
2023-02-25T20:51:25.304Z,72.37
2023-02-25T20:53:56.540Z,56.00
2023-02-25T20:56:29.295Z,54.10
2023-02-25T20:58:57.256Z,60.07
2023-02-25T21:01:26.853Z,52.77
2023-02-25T21:03:56.569Z,51.70
2023-02-25T21:06:27.430Z,54.17
2023-02-25T21:08:57.677Z,52.10
2023-02-25T21:11:29.830Z,57.03
2023-02-25T21:13:58.573Z,52.97
2023-02-25T21:16:33.765Z,49.60
2023-02-25T21:19:02.292Z,55.87
2023-02-25T21:21:32.030Z,56.00
2023-02-25T21:24:09.197Z,49.53
2023-02-25T21:26:40.446Z,50.93
2023-02-25T21:29:09.715Z,50.67
2023-02-25T21:31:38.364Z,51.87
2023-02-25T21:34:09.556Z,49.63
2023-02-25T21:36:38.603Z,49.30
2023-02-25T21:39:07.360Z,53.77
2023-02-25T21:41:36.901Z,50.50
2023-02-25T21:44:14.767Z,51.60
2023-02-25T21:46:43.827Z,50.93
2023-02-25T21:49:14.406Z,53.33
2023-02-25T21:51:43.220Z,49.33
2023-02-25T21:54:11.631Z,48.97
2023-02-25T21:56:40.957Z,50.53
2023-02-25T21:59:12.177Z,48.93
2023-02-25T22:01:44.231Z,51.70
2023-02-25T22:04:15.082Z,52.40
2023-02-25T22:06:47.425Z,50.93
2023-02-25T22:09:18.344Z,50.73
2023-02-25T22:11:47.276Z,51.40
2023-02-25T22:14:16.008Z,49.97
2023-02-25T22:16:44.358Z,58.47
2023-02-25T22:19:12.571Z,54.10
2023-02-25T22:21:41.428Z,55.93
2023-02-25T22:24:09.930Z,57.60
2023-02-25T22:26:47.465Z,50.13
2023-02-25T22:29:16.065Z,56.70
2023-02-25T22:31:44.724Z,51.97
2023-02-25T22:34:13.234Z,51.87
2023-02-25T22:36:41.365Z,53.37
2023-02-25T22:39:12.067Z,49.83
2023-02-25T22:41:41.597Z,49.10
2023-02-25T22:44:12.275Z,47.63
2023-02-25T22:46:42.442Z,50.90
2023-02-25T22:49:11.672Z,49.40
2023-02-25T22:51:45.282Z,46.47
2023-02-25T22:54:18.153Z,49.00
2023-02-25T22:56:47.557Z,55.97
2023-02-25T22:59:16.121Z,50.00
2023-02-25T23:01:44.336Z,53.80
2023-02-25T23:04:12.854Z,52.20
2023-02-25T23:06:44.347Z,47.73
2023-02-25T23:09:14.807Z,47.37
2023-02-25T23:11:44.498Z,49.60
2023-02-25T23:14:14.653Z,41.60
2023-02-25T23:16:45.137Z,44.63
2023-02-25T23:19:17.338Z,39.40
2023-02-25T23:21:47.159Z,44.30
2023-02-25T23:24:18.808Z,46.10
2023-02-25T23:26:50.833Z,40.33
2023-02-25T23:29:19.190Z,49.40
2023-02-25T23:31:50.382Z,43.70
2023-02-25T23:34:23.807Z,39.47
2023-02-25T23:36:56.818Z,43.43
2023-02-25T23:39:25.738Z,44.63
2023-02-25T23:41:56.358Z,43.60
2023-02-25T23:44:25.339Z,39.60
2023-02-25T23:46:58.418Z,43.23
2023-02-25T23:49:26.756Z,39.20
2023-02-25T23:51:56.333Z,37.30
2023-02-25T23:54:25.039Z,40.60
2023-02-25T23:56:57.779Z,42.07
2023-02-25T23:59:29.722Z,38.77
